Terminal Aerodrome Forecast
Issued by NWS Green Bay, WI

Home | Current Version | Previous Version | Graphics & Text | Print | Product List | Glossary On
Versions: 1 2 3 4 5 6 7 8 9 10 11 12 13 14 15 16 17 18 19 20 21 22
000
FTUS43 KGRB 211725
TAFGRB
TAF
KGRB 211725Z 2118/2218 24011G20KT P6SM SCT030 BKN045
     FM220500 25009G15KT P6SM SCT018 OVC025
     FM221500 26012G22KT P6SM BKN040=

USA.gov is the U.S. government's official web portal to all federal, state and local government web resources and services.